Time;durP1;ratioP1;P1;durP2;ratioP2;P2;SDS_P1;SDS_P2;PMS_P1;PMS_P2;Temp;Humidity;BMP_temperature;BMP_pressure;BME280_temperature;BME280_humidity;BME280_pressure;Samples;Min_cycle;Max_cycle;Signal;HPM_P1;HPM_P2
2021/03/11 00:01:36;;;;;;;26.35;5.32;;;;;;;10.46;81.16;97495.38;4435064;27;20065;-73
2021/03/11 00:04:02;;;;;;;32.50;5.80;;;;;;;10.45;80.17;97477.00;4417445;32;20081;-73
2021/03/11 00:06:27;;;;;;;40.35;5.47;;;;;;;10.56;79.56;97474.16;4423693;32;20085;-73
2021/03/11 00:08:53;;;;;;;43.30;5.87;;;;;;;10.61;78.51;97467.00;4424021;32;20133;-73
2021/03/11 00:11:19;;;;;;;40.33;6.93;;;;;;;10.70;77.44;97466.66;4424440;32;20157;-74
2021/03/11 00:13:44;;;;;;;47.47;6.28;;;;;;;10.75;77.56;97458.22;4426271;32;20386;-73
2021/03/11 00:16:10;;;;;;;29.52;5.28;;;;;;;10.83;77.72;97473.25;4423777;32;20391;-73
2021/03/11 00:18:36;;;;;;;44.55;6.60;;;;;;;10.85;76.82;97469.91;4424358;32;20170;-74
2021/03/11 00:21:02;;;;;;;43.92;6.45;;;;;;;10.89;77.95;97459.19;4421780;32;20401;-74
2021/03/11 00:23:30;;;;;;;35.13;5.50;;;;;;;10.86;77.68;97455.34;4423532;32;20080;-74
2021/03/11 00:25:56;;;;;;;32.25;5.30;;;;;;;10.73;76.93;97435.47;4426608;32;20521;-74
2021/03/11 00:28:23;;;;;;;28.12;5.25;;;;;;;10.54;78.11;97434.53;4427085;32;20565;-73
2021/03/11 00:30:49;;;;;;;32.92;5.57;;;;;;;10.47;77.60;97442.75;4423853;32;20046;-74
2021/03/11 00:33:15;;;;;;;37.38;6.32;;;;;;;10.51;76.59;97429.19;4422122;32;20067;-73
2021/03/11 00:35:41;;;;;;;33.17;4.87;;;;;;;10.52;75.63;97431.47;4425885;32;20042;-73
2021/03/11 00:38:07;;;;;;;31.40;4.70;;;;;;;10.48;75.25;97433.03;4421858;32;20068;-73
2021/03/11 00:40:33;;;;;;;35.88;5.10;;;;;;;10.44;74.02;97388.34;4421172;32;20047;-74
2021/03/11 00:43:00;;;;;;;32.00;5.20;;;;;;;10.50;73.33;97363.00;4423408;32;20044;-72
2021/03/11 00:45:26;;;;;;;35.08;5.15;;;;;;;10.48;73.05;97379.63;4426102;32;20102;-73
2021/03/11 00:47:51;;;;;;;32.80;4.65;;;;;;;10.53;72.87;97371.19;4425732;32;20038;-74
2021/03/11 00:50:20;;;;;;;42.40;5.75;;;;;;;10.54;71.24;97377.56;4407375;32;20441;-73
2021/03/11 00:52:46;;;;;;;40.97;5.47;;;;;;;10.60;71.21;97369.84;4422178;32;20088;-73
2021/03/11 00:55:14;;;;;;;37.78;5.60;;;;;;;10.47;70.64;97356.41;4424052;32;20122;-73
2021/03/11 00:57:40;;;;;;;42.40;5.87;;;;;;;10.54;70.35;97355.84;4422365;32;20473;-74
2021/03/11 01:00:09;;;;;;;41.80;6.20;;;;;;;10.48;70.50;97334.66;4423429;32;20104;-74
2021/03/11 01:02:35;;;;;;;43.50;5.47;;;;;;;10.58;70.05;97344.31;4424051;32;20385;-73
2021/03/11 01:05:01;;;;;;;49.60;5.78;;;;;;;10.54;69.71;97324.91;4422717;32;20137;-74
2021/03/11 01:07:26;;;;;;;32.88;5.03;;;;;;;10.53;69.87;97331.81;4419968;32;20042;-74
2021/03/11 01:09:52;;;;;;;34.70;5.25;;;;;;;10.48;70.29;97323.41;4421637;32;20150;-74
2021/03/11 01:12:18;;;;;;;30.23;5.95;;;;;;;10.56;69.64;97327.19;4422505;32;20420;-74
2021/03/11 01:14:43;;;;;;;35.65;5.68;;;;;;;10.62;69.26;97327.94;4422184;32;20105;-75
2021/03/11 01:17:09;;;;;;;40.58;5.45;;;;;;;10.63;69.39;97321.03;4422249;32;20495;-75
2021/03/11 01:19:36;;;;;;;46.35;6.18;;;;;;;10.70;68.71;97303.59;4418955;32;20457;-74
2021/03/11 01:22:02;;;;;;;31.90;4.60;;;;;;;10.73;68.91;97305.34;4419516;32;20279;-75
2021/03/11 01:24:28;;;;;;;40.97;6.70;;;;;;;10.79;69.37;97314.50;4423069;32;20425;-75
2021/03/11 01:26:53;;;;;;;47.22;6.30;;;;;;;10.74;68.79;97302.03;4421674;32;20443;-74
2021/03/11 01:29:19;;;;;;;40.88;5.80;;;;;;;10.83;68.21;97289.69;4419599;32;20454;-74
2021/03/11 01:31:46;;;;;;;43.22;6.80;;;;;;;10.88;67.75;97286.06;4409310;32;20482;-74
2021/03/11 01:34:12;;;;;;;39.85;5.65;;;;;;;10.93;67.98;97274.78;4421962;32;20026;-74
2021/03/11 01:36:38;;;;;;;43.87;5.22;;;;;;;10.99;67.73;97269.09;4422331;32;20124;-74
2021/03/11 01:39:04;;;;;;;36.10;6.25;;;;;;;11.07;66.86;97279.25;4421608;32;20056;-74
2021/03/11 01:41:30;;;;;;;37.28;6.45;;;;;;;11.19;66.53;97263.81;4424595;32;20057;-74
2021/03/11 01:43:57;;;;;;;40.67;5.82;;;;;;;11.23;66.40;97260.69;4422072;32;20077;-74
2021/03/11 01:46:24;;;;;;;38.40;5.82;;;;;;;11.30;66.70;97248.84;4425193;32;20042;-74
2021/03/11 01:48:51;;;;;;;42.03;5.80;;;;;;;11.43;65.26;97243.34;4417924;32;20068;-74
2021/03/11 01:51:18;;;;;;;32.15;5.07;;;;;;;11.40;64.94;97250.78;4420236;32;20081;-73
2021/03/11 01:53:45;;;;;;;35.13;5.65;;;;;;;11.48;64.69;97226.37;4423463;32;20046;-74
2021/03/11 01:56:11;;;;;;;32.35;4.82;;;;;;;11.51;65.20;97252.72;4425529;32;20068;-74
2021/03/11 01:58:38;;;;;;;24.65;4.05;;;;;;;11.43;65.69;97235.66;4421651;32;20066;-74
2021/03/11 02:01:03;;;;;;;23.12;3.97;;;;;;;11.47;65.77;97249.44;4422129;32;20045;-74
2021/03/11 02:03:29;;;;;;;30.00;4.55;;;;;;;11.43;65.78;97263.03;4420196;32;20081;-74
2021/03/11 02:05:55;;;;;;;30.65;4.22;;;;;;;11.43;65.63;97252.56;4423780;32;20083;-75
2021/03/11 02:08:21;;;;;;;30.45;4.18;;;;;;;11.31;65.95;97233.50;4404948;32;20046;-76
2021/03/11 02:10:47;;;;;;;26.33;4.68;;;;;;;11.34;65.83;97243.69;4423745;32;20045;-76
2021/03/11 02:32:10;;;;;;;21.00;3.30;;;;;;;10.71;71.83;97206.72;3983417;32;15028579;-76
2021/03/11 02:34:41;;;;;;;26.42;4.57;;;;;;;10.71;71.83;97206.72;4443614;32;20013;-76
2021/03/11 02:37:13;;;;;;;21.40;2.70;;;;;;;10.30;73.65;97141.38;4435400;32;20068;-75
2021/03/11 02:39:43;;;;;;;22.70;3.60;;;;;;;10.23;73.35;97145.53;4440427;32;20038;-75
2021/03/11 02:42:10;;;;;;;20.37;3.17;;;;;;;10.31;72.74;97145.72;4443749;32;20095;-75
2021/03/11 02:44:36;;;;;;;15.32;3.33;;;;;;;10.30;71.80;97144.19;4443698;32;21032;-75
2021/03/11 02:47:03;;;;;;;25.85;3.30;;;;;;;10.37;70.86;97141.56;4442438;32;20056;-75
2021/03/11 02:49:29;;;;;;;18.30;2.85;;;;;;;10.41;69.66;97153.31;4440121;32;20018;-75
2021/03/11 02:51:55;;;;;;;10.18;2.17;;;;;;;10.42;69.47;97140.78;4443843;32;20029;-75
2021/03/11 02:54:22;;;;;;;17.75;2.47;;;;;;;10.39;69.69;97133.38;4440485;32;20072;-76
2021/03/11 02:56:49;;;;;;;18.60;2.67;;;;;;;10.38;69.89;97120.63;4444041;32;20067;-75
2021/03/11 02:59:17;;;;;;;16.15;2.45;;;;;;;10.41;69.77;97116.78;4441409;32;20081;-75
2021/03/11 03:01:45;;;;;;;18.30;2.35;;;;;;;10.42;69.91;97107.06;4437237;32;20081;-75
2021/03/11 03:04:12;;;;;;;15.48;2.45;;;;;;;10.43;70.04;97097.31;4434842;32;20081;-75
2021/03/11 03:06:40;;;;;;;17.87;3.42;;;;;;;10.52;70.07;97091.34;4437465;32;20056;-76
2021/03/11 03:09:07;;;;;;;17.52;2.60;;;;;;;10.54;69.72;97093.66;4432336;32;20136;-75
2021/03/11 03:11:35;;;;;;;23.62;3.10;;;;;;;10.57;69.60;97095.41;4430520;32;20395;-75
2021/03/11 03:14:02;;;;;;;22.20;3.25;;;;;;;10.51;69.58;97091.88;4440414;32;20098;-76
2021/03/11 03:16:28;;;;;;;21.00;3.37;;;;;;;10.56;69.07;97071.41;4433795;32;20056;-76
2021/03/11 03:18:55;;;;;;;25.08;3.37;;;;;;;10.55;68.80;97069.88;4433383;32;20022;-76
2021/03/11 03:21:22;;;;;;;23.38;4.25;;;;;;;10.63;69.07;97071.59;4430280;32;20072;-76
2021/03/11 03:23:48;;;;;;;22.35;3.47;;;;;;;10.72;69.14;97057.19;4434722;32;20460;-75
2021/03/11 03:26:13;;;;;;;34.58;4.45;;;;;;;10.65;69.29;97052.13;4435806;32;20109;-75
2021/03/11 03:28:39;;;;;;;18.05;4.03;;;;;;;10.63;70.08;97049.09;4432205;32;20048;-76
2021/03/11 03:31:05;;;;;;;30.35;4.65;;;;;;;10.54;71.10;97029.00;4433032;32;20494;-76
2021/03/11 03:33:32;;;;;;;22.77;3.67;;;;;;;10.50;71.80;97023.69;4433188;32;20065;-76
2021/03/11 03:35:57;;;;;;;25.95;3.92;;;;;;;10.39;72.36;97001.31;4434133;32;20029;-76
2021/03/11 03:38:23;;;;;;;15.05;2.58;;;;;;;10.32;72.63;97027.19;4431170;32;20100;-77
2021/03/11 03:40:49;;;;;;;21.00;3.33;;;;;;;10.29;73.25;97028.25;4429916;32;20065;-76
2021/03/11 03:43:23;;;;;;;21.58;3.25;;;;;;;10.30;73.18;97001.66;4422061;32;20504;-76
2021/03/11 03:45:58;;;;;;;20.85;3.25;;;;;;;10.24;74.19;96991.78;4425761;32;20056;-76
2021/03/11 03:48:40;;;;;;;24.42;3.08;;;;;;;10.21;74.63;97002.00;4418328;32;20160;-76
2021/03/11 03:51:07;;;;;;;22.75;3.15;;;;;;;10.21;76.01;96978.78;4421255;32;20438;-76
2021/03/11 03:53:40;;;;;;;22.58;2.87;;;;;;;10.06;76.05;96971.50;4423857;32;20331;-77
2021/03/11 03:56:11;;;;;;;17.20;2.53;;;;;;;10.04;75.74;96939.59;4422828;32;20060;-77
2021/03/11 03:58:39;;;;;;;25.37;2.75;;;;;;;10.10;75.39;96957.19;4424137;32;20096;-77
2021/03/11 04:01:05;;;;;;;24.42;3.12;;;;;;;10.10;74.83;96943.88;4418891;32;20088;-76
2021/03/11 04:03:32;;;;;;;19.48;2.90;;;;;;;10.23;74.15;96922.81;4418166;32;20081;-76
2021/03/11 04:05:58;;;;;;;18.25;3.60;;;;;;;10.30;73.72;96928.59;4419120;32;20711;-76
2021/03/11 04:08:25;;;;;;;42.45;3.17;;;;;;;10.35;73.49;96944.66;4419396;32;20067;-76
2021/03/11 04:10:51;;;;;;;19.85;3.25;;;;;;;10.37;73.52;96901.97;4426275;32;20061;-76
2021/03/11 04:13:17;;;;;;;19.50;2.95;;;;;;;10.29;73.82;96887.00;4425909;32;20049;-77
2021/03/11 04:15:45;;;;;;;23.15;3.12;;;;;;;10.30;73.90;96894.13;4424247;32;20030;-77
2021/03/11 04:18:12;;;;;;;22.80;3.40;;;;;;;10.37;73.93;96865.44;4420781;32;20069;-77
2021/03/11 04:20:39;;;;;;;27.98;4.57;;;;;;;10.31;73.97;96847.91;4421022;32;20062;-76
2021/03/11 04:23:05;;;;;;;24.63;3.83;;;;;;;10.36;74.07;96841.44;4420113;32;20034;-76
2021/03/11 04:25:31;;;;;;;27.02;3.97;;;;;;;10.26;74.34;96904.91;4419338;32;20515;-76
2021/03/11 04:27:57;;;;;;;22.15;4.18;;;;;;;10.16;75.31;96836.34;4422413;32;20041;-76
2021/03/11 04:30:23;;;;;;;17.25;2.90;;;;;;;10.05;76.67;96815.50;4420626;32;20417;-75
2021/03/11 04:32:50;;;;;;;25.90;3.50;;;;;;;9.91;78.56;96839.16;4421759;32;20092;-76
2021/03/11 04:35:17;;;;;;;20.45;3.42;;;;;;;9.82;80.93;96839.50;4419974;32;20064;-76
2021/03/11 04:37:43;;;;;;;23.23;3.10;;;;;;;9.66;82.13;96843.25;4418458;32;20025;-75
2021/03/11 04:40:10;;;;;;;21.25;3.40;;;;;;;9.51;84.29;96842.16;4421829;32;20069;-75
2021/03/11 04:42:37;;;;;;;22.92;3.45;;;;;;;9.40;84.77;96808.59;4424399;32;20109;-75
2021/03/11 04:45:06;;;;;;;31.10;3.65;;;;;;;9.27;85.23;96828.09;4422366;32;20027;-75
2021/03/11 04:47:34;;;;;;;19.60;3.22;;;;;;;9.21;85.57;96797.28;4416600;32;20038;-75
2021/03/11 04:50:00;;;;;;;30.30;4.57;;;;;;;9.09;86.12;96814.75;4423895;32;20101;-76
2021/03/11 04:52:27;;;;;;;24.90;3.70;;;;;;;9.12;87.12;96794.84;4422145;32;20034;-76
2021/03/11 04:54:54;;;;;;;24.25;3.20;;;;;;;9.06;87.68;96802.53;4421666;32;20026;-76
2021/03/11 04:57:20;;;;;;;22.62;3.40;;;;;;;9.02;88.36;96810.44;4419675;32;20033;-76
2021/03/11 04:59:46;;;;;;;29.33;4.18;;;;;;;9.00;88.60;96824.25;4422522;32;20041;-76
2021/03/11 05:02:12;;;;;;;23.50;2.67;;;;;;;9.04;88.78;96805.09;4424171;32;20055;-75
2021/03/11 05:04:42;;;;;;;15.55;2.28;;;;;;;9.02;89.26;96806.91;4424522;32;20332;-75
2021/03/11 05:07:08;;;;;;;14.87;2.20;;;;;;;9.07;88.90;96820.88;4421556;32;20097;-76
2021/03/11 05:09:33;;;;;;;12.80;2.33;;;;;;;9.08;89.37;96811.16;4420923;32;20072;-76
2021/03/11 05:11:59;;;;;;;16.65;2.33;;;;;;;9.04;88.72;96807.87;4421262;32;20070;-76
2021/03/11 05:14:25;;;;;;;15.75;1.90;;;;;;;9.03;88.87;96808.41;4421659;32;20026;-75
2021/03/11 05:16:51;;;;;;;21.50;2.37;;;;;;;9.07;89.65;96808.88;4421212;32;20425;-76
2021/03/11 05:19:16;;;;;;;12.40;1.70;;;;;;;9.09;89.68;96807.09;4420025;32;20030;-77
2021/03/11 05:21:42;;;;;;;11.40;2.15;;;;;;;9.08;88.96;96783.13;4421885;32;20046;-75
2021/03/11 05:24:09;;;;;;;9.45;1.37;;;;;;;9.14;88.18;96775.41;4421108;32;20073;-76
2021/03/11 05:26:34;;;;;;;10.57;1.50;;;;;;;9.16;88.19;96800.91;4423687;32;20021;-75
2021/03/11 05:29:00;;;;;;;12.25;1.40;;;;;;;9.13;88.83;96776.72;4418205;32;20038;-75
2021/03/11 05:31:26;;;;;;;12.80;1.65;;;;;;;9.26;87.52;96767.66;4420222;32;20072;-76
2021/03/11 05:33:51;;;;;;;11.02;1.17;;;;;;;9.25;88.42;96774.56;4420770;32;20033;-75
2021/03/11 05:36:17;;;;;;;8.57;1.40;;;;;;;9.21;88.53;96802.88;4422313;32;20159;-76
2021/03/11 05:38:45;;;;;;;14.20;1.65;;;;;;;9.24;87.83;96776.59;4414683;32;20374;-75
2021/03/11 05:41:12;;;;;;;12.15;1.52;;;;;;;9.33;87.02;96809.16;4421519;32;20069;-76
2021/03/11 05:43:41;;;;;;;18.23;2.28;;;;;;;9.39;87.23;96779.00;4424823;32;20053;-75
2021/03/11 05:46:09;;;;;;;11.20;1.75;;;;;;;9.35;87.62;96796.12;4422151;32;20090;-75
2021/03/11 05:48:37;;;;;;;9.85;1.70;;;;;;;9.38;87.61;96802.72;4419369;32;20068;-76
2021/03/11 05:51:03;;;;;;;14.60;1.60;;;;;;;9.35;88.86;96807.34;4420237;32;20492;-76
2021/03/11 05:53:32;;;;;;;12.18;1.80;;;;;;;9.34;89.44;96819.88;4418565;32;20042;-75
2021/03/11 05:55:58;;;;;;;11.10;1.77;;;;;;;9.31;90.81;96815.31;4421246;32;20275;-76
2021/03/11 05:58:23;;;;;;;11.63;1.80;;;;;;;9.26;91.05;96816.09;4421274;32;20034;-76
2021/03/11 06:00:49;;;;;;;11.50;1.52;;;;;;;9.25;91.53;96808.22;4418041;32;20060;-78
2021/03/11 06:03:15;;;;;;;18.92;2.12;;;;;;;9.26;91.30;96820.94;4419245;32;20178;-77
2021/03/11 06:05:42;;;;;;;11.85;2.22;;;;;;;9.35;91.14;96829.78;4419177;32;20065;-77
2021/03/11 06:08:08;;;;;;;13.90;2.15;;;;;;;9.40;91.09;96831.78;4421427;32;20059;-78
2021/03/11 06:10:38;;;;;;;11.80;1.75;;;;;;;9.38;90.86;96839.19;4420746;32;20099;-77
2021/03/11 06:13:05;;;;;;;9.98;1.52;;;;;;;9.46;91.07;96860.56;4422429;32;20145;-76
2021/03/11 06:15:39;;;;;;;13.52;1.70;;;;;;;9.50;91.05;96869.44;4419874;32;20402;-77
2021/03/11 06:18:07;;;;;;;10.30;1.30;;;;;;;9.55;90.26;96881.91;4419869;32;20049;-74
2021/03/11 06:20:33;;;;;;;10.90;1.45;;;;;;;9.62;89.84;96896.12;4423302;32;20370;-77
2021/03/11 06:22:58;;;;;;;17.23;1.48;;;;;;;9.56;90.01;96909.44;4421255;32;20101;-75
2021/03/11 06:25:24;;;;;;;7.70;1.30;;;;;;;9.57;89.59;96924.97;4423285;32;20410;-78
2021/03/11 06:27:50;;;;;;;6.25;1.27;;;;;;;9.60;89.94;96935.16;4417859;32;20077;-76
2021/03/11 06:30:36;;;;;;;7.62;1.52;;;;;;;9.66;88.25;96951.94;4424843;32;20165;-74
2021/03/11 06:33:04;;;;;;;8.88;0.85;;;;;;;9.71;87.98;96985.59;4419867;32;20146;-74
2021/03/11 06:35:33;;;;;;;5.22;0.95;;;;;;;9.74;87.34;96986.59;4421917;32;20069;-74
2021/03/11 06:37:59;;;;;;;6.47;0.80;;;;;;;9.72;89.12;97001.16;4422465;32;20469;-75
2021/03/11 06:40:26;;;;;;;3.42;0.37;;;;;;;9.73;87.39;97005.47;4423370;32;20076;-77
2021/03/11 06:43:07;;;;;;;3.25;0.40;;;;;;;9.71;86.45;97019.28;4420838;32;20038;-76
2021/03/11 06:45:34;;;;;;;6.30;0.52;;;;;;;9.73;87.42;97018.75;4419095;32;20134;-76
2021/03/11 06:48:21;;;;;;;3.25;0.90;;;;;;;9.72;87.16;97046.06;4421373;32;20046;-76
2021/03/11 06:50:47;;;;;;;4.75;0.68;;;;;;;9.76;87.04;97074.59;4421970;32;20378;-76
2021/03/11 06:53:12;;;;;;;8.93;0.73;;;;;;;9.69;85.98;97114.47;4418891;32;20042;-75
2021/03/11 06:55:38;;;;;;;6.65;0.68;;;;;;;9.63;86.07;97112.97;4416765;32;20077;-76
2021/03/11 07:01:07;;;;;;;7.32;0.82;;;;;;;10.01;85.31;97168.88;3957698;32;15723459;-74
2021/03/11 07:03:42;;;;;;;5.93;0.70;;;;;;;10.01;85.31;97168.88;4420675;32;20100;-74
2021/03/11 07:06:08;;;;;;;4.50;0.47;;;;;;;9.52;87.37;97166.37;4409175;32;20095;-75
2021/03/11 07:08:34;;;;;;;4.28;1.05;;;;;;;9.50;86.74;97197.75;4407888;32;20217;-75
2021/03/11 07:11:04;;;;;;;3.85;0.40;;;;;;;9.30;84.91;97186.84;4420495;32;20021;-76
2021/03/11 07:13:39;;;;;;;4.68;0.47;;;;;;;9.28;83.49;97236.34;4420358;32;20033;-77
2021/03/11 07:16:12;;;;;;;4.80;0.47;;;;;;;9.15;82.71;97245.31;4422507;32;20087;-75
2021/03/11 07:18:38;;;;;;;5.07;0.57;;;;;;;8.91;82.86;97249.91;4418701;32;20113;-74
2021/03/11 07:21:03;;;;;;;5.25;0.62;;;;;;;8.81;81.44;97260.62;4417279;32;20092;-75
2021/03/11 07:23:29;;;;;;;3.58;0.45;;;;;;;8.84;82.22;97293.25;4417486;32;20458;-74
2021/03/11 07:25:55;;;;;;;2.28;0.57;;;;;;;8.86;83.01;97278.72;4420982;32;20060;-74
2021/03/11 07:30:58;;;;;;;4.50;0.47;;;;;;;9.23;83.67;97350.09;3978474;32;15022519;-73
2021/03/11 07:33:28;;;;;;;5.37;0.40;;;;;;;9.23;83.67;97350.09;4429202;32;20067;-74
2021/03/11 07:35:57;;;;;;;2.15;0.10;;;;;;;8.85;84.54;97336.84;4419657;32;20041;-73
2021/03/11 07:38:26;;;;;;;4.53;0.20;;;;;;;8.76;85.48;97359.50;4426218;32;20087;-75
2021/03/11 07:40:55;;;;;;;2.30;0.30;;;;;;;8.67;85.54;97356.94;4429365;32;20486;-74
2021/03/11 07:43:24;;;;;;;1.48;0.55;;;;;;;8.65;85.18;97367.12;4426940;32;20025;-73
2021/03/11 07:45:53;;;;;;;7.32;1.10;;;;;;;8.65;83.71;97376.28;4423091;32;20614;-73
2021/03/11 07:48:19;;;;;;;7.72;0.82;;;;;;;8.72;82.81;97400.28;4421381;32;20063;-73
2021/03/11 07:50:45;;;;;;;6.95;0.82;;;;;;;8.69;83.18;97382.44;4424901;32;20026;-77
2021/03/11 07:53:12;;;;;;;3.28;0.55;;;;;;;8.64;83.60;97425.22;4424117;32;20065;-75
2021/03/11 07:55:38;;;;;;;3.37;0.43;;;;;;;8.63;84.03;97434.13;4428190;32;20049;-75
2021/03/11 07:58:06;;;;;;;7.95;0.60;;;;;;;8.64;83.35;97444.06;4421468;32;20059;-75
2021/03/11 08:00:33;;;;;;;7.62;0.70;;;;;;;8.60;82.94;97443.53;4418066;32;20045;-74
2021/03/11 08:03:09;;;;;;;7.20;0.85;;;;;;;8.59;81.79;97498.06;4404201;32;20573;-74
2021/03/11 08:05:36;;;;;;;9.38;0.90;;;;;;;8.56;81.35;97471.81;4406977;32;20052;-75
2021/03/11 08:08:25;;;;;;;4.90;0.88;;;;;;;8.60;82.01;97491.19;4409953;32;20392;-74
2021/03/11 08:13:37;;;;;;;11.95;1.30;;;;;;;9.08;79.32;97554.31;3980331;31;15014098;-75
2021/03/11 08:18:47;;;;;;;8.10;1.02;;;;;;;8.97;78.86;97589.97;3971139;32;15024316;-75
2021/03/11 08:24:48;;;;;;;8.07;0.93;;;;;;;8.85;77.65;97631.22;3966854;32;15027556;-75
2021/03/11 08:33:33;;;;;;;12.10;1.40;;;;;;;8.67;76.35;97644.84;3977214;32;15022161;-75
2021/03/11 08:36:00;;;;;;;13.48;1.52;;;;;;;8.67;76.35;97644.84;4423269;32;20251;-74
2021/03/11 08:46:18;;;;;;;11.55;1.30;;;;;;;8.88;75.02;97702.34;3974902;32;15023451;-76
